This is the latest recevied weather packets stored in our database for station/object KQ4HEI. If no packets are shown the sender has not sent any weather packets the latest 10 day(s).
| Time | Temp. | Humidity | Pressure | Rain* | Wind** | Luminosity | Snow |
|---|---|---|---|---|---|---|---|
| 1777329092 | 30.56° C | 57% | 1015 hPa | 0 mm | - | - | - |
| 1777328492 | 31.11° C | 55% | 1014.9 hPa | 0 mm | - | - | - |
| 1777327892 | 31.67° C | 50% | 1014.9 hPa | 0 mm | - | - | - |
| 1777327292 | 32.22° C | 46% | 1014.8 hPa | 0 mm | - | - | - |
| 1777326692 | 32.78° C | 45% | 1014.8 hPa | 0 mm | - | - | - |
| 1777326092 | 31.67° C | 48% | 1014.8 hPa | 0 mm | - | - | - |
| 1777325492 | 31.11° C | 49% | 1014.9 hPa | 0 mm | - | - | - |
| 1777324985 | 32.78° C | 46% | 1014.9 hPa | 0 mm | - | - | - |
| 1777324892 | 32.78° C | 46% | 1014.9 hPa | 0 mm | - | - | - |
| 1777324292 | 33.33° C | 45% | 1015 hPa | 0 mm | - | - | - |
| 1777323692 | 32.22° C | 49% | 1015.1 hPa | 0 mm | - | - | - |
| 1777323092 | 31.11° C | 51% | 1015.1 hPa | 0 mm | - | - | - |
| 1777322492 | 31.67° C | 51% | 1014.9 hPa | 0 mm | - | - | - |
| 1777321892 | 31.11° C | 52% | 1015 hPa | 0 mm | - | - | - |
| 1777321292 | 31.67° C | 51% | 1015.1 hPa | 0 mm | - | - | - |
| 1777320692 | 31.11° C | 52% | 1015.1 hPa | 0 mm | - | - | - |
| 1777320092 | 30.56° C | 54% | 1015.2 hPa | 0 mm | - | - | - |
| 1777319492 | 30° C | 55% | 1015.2 hPa | 0 mm | - | - | - |
| 1777318892 | 31.67° C | 53% | 1015.3 hPa | 0 mm | - | - | - |
| 1777318292 | 30° C | 58% | 1015.5 hPa | 0 mm | - | - | - |
| 1777317694 | 30° C | 57% | 1015.6 hPa | 0 mm | - | - | - |
| 1777317092 | 31.11° C | 55% | 1015.6 hPa | 0 mm | - | - | - |
| 1777316492 | 30.56° C | 56% | 1015.7 hPa | 0 mm | - | - | - |
| 1777315892 | 30° C | 57% | 1015.7 hPa | 0 mm | - | - | - |
| 1777315292 | 28.89° C | 61% | 1015.7 hPa | 0 mm | - | - | - |
* Rain latest hour (hover to see other rain measurements)
** Current wind speed in m/s (hover to see current wind gust speed)